createdAt,value
2022-07-30T00:00:40.634Z,67.10
2022-07-30T00:05:38.670Z,67.10
2022-07-30T00:10:36.806Z,67.30
2022-07-30T00:15:36.354Z,67.50
2022-07-30T00:20:34.354Z,68.70
2022-07-30T00:25:33.574Z,68.00
2022-07-30T00:30:31.578Z,68.10
2022-07-30T00:35:31.270Z,68.40
2022-07-30T00:40:29.334Z,68.50
2022-07-30T00:45:27.714Z,69.00
2022-07-30T00:50:25.812Z,70.00
2022-07-30T00:55:25.762Z,70.00
2022-07-30T01:00:23.886Z,70.10
2022-07-30T01:05:22.374Z,70.40
2022-07-30T01:10:20.481Z,70.90
2022-07-30T01:15:20.623Z,71.30
2022-07-30T01:20:24.130Z,71.40
2022-07-30T01:25:31.938Z,71.60
2022-07-30T01:30:35.219Z,72.30
2022-07-30T01:35:35.441Z,72.20
2022-07-30T01:40:34.974Z,72.20
2022-07-30T01:45:35.733Z,72.70
2022-07-30T01:50:45.781Z,72.80
2022-07-30T01:55:45.816Z,73.30
2022-07-30T02:00:47.309Z,74.40
2022-07-30T02:05:51.377Z,74.10
2022-07-30T02:10:54.947Z,74.10
2022-07-30T02:15:58.964Z,74.70
2022-07-30T02:21:02.571Z,74.50
2022-07-30T02:26:06.183Z,74.70
2022-07-30T02:31:17.549Z,75.00
2022-07-30T02:36:17.978Z,75.30
2022-07-30T02:41:19.767Z,75.60
2022-07-30T02:46:20.886Z,76.00
2022-07-30T02:51:38.338Z,76.00
2022-07-30T02:56:38.754Z,76.50
2022-07-30T03:01:38.822Z,76.40
2022-07-30T03:06:38.070Z,76.70
2022-07-30T03:11:36.834Z,77.60
2022-07-30T03:16:38.384Z,78.00
2022-07-30T03:21:38.578Z,78.20
2022-07-30T03:26:38.313Z,77.80
2022-07-30T03:31:39.673Z,78.40
2022-07-30T03:36:41.543Z,78.50
2022-07-30T03:41:40.491Z,79.30
2022-07-30T03:46:45.849Z,79.50
2022-07-30T03:51:46.289Z,79.90
2022-07-30T03:56:47.201Z,79.90
2022-07-30T04:01:55.260Z,80.00
2022-07-30T04:07:11.278Z,80.90
2022-07-30T04:12:10.106Z,81.10
2022-07-30T04:17:13.885Z,82.00
2022-07-30T04:22:17.119Z,81.60
2022-07-30T04:27:15.947Z,82.60
2022-07-30T04:32:15.351Z,82.70
2022-07-30T04:37:27.183Z,83.60
2022-07-30T04:42:27.339Z,82.80
2022-07-30T04:47:34.849Z,83.10
2022-07-30T04:52:57.377Z,84.10
2022-07-30T04:58:02.103Z,84.60
2022-07-30T05:03:05.315Z,83.80
2022-07-30T05:08:04.827Z,84.60
2022-07-30T05:13:03.375Z,84.50
2022-07-30T05:18:01.410Z,84.20
2022-07-30T05:23:01.818Z,84.70
2022-07-30T05:28:00.114Z,84.40
2022-07-30T05:32:58.186Z,84.60
2022-07-30T05:38:01.556Z,85.60
2022-07-30T05:43:05.289Z,85.30
2022-07-30T05:48:03.514Z,84.70
2022-07-30T05:53:03.006Z,84.90
2022-07-30T05:58:36.264Z,84.90
2022-07-30T06:03:34.929Z,84.80
2022-07-30T06:08:54.551Z,84.70
2022-07-30T06:13:52.504Z,84.90
2022-07-30T06:18:51.079Z,84.50
2022-07-30T06:24:00.457Z,84.20
2022-07-30T06:29:08.323Z,84.90
2022-07-30T06:34:07.174Z,85.00
2022-07-30T06:39:11.197Z,85.10
2022-07-30T06:44:41.319Z,85.00
2022-07-30T06:49:55.905Z,84.30
2022-07-30T06:54:56.039Z,84.50
2022-07-30T07:00:20.641Z,85.00
2022-07-30T07:05:18.824Z,84.70
2022-07-30T07:10:21.415Z,85.00
2022-07-30T07:15:36.224Z,84.80
2022-07-30T07:20:37.258Z,84.20
2022-07-30T07:25:39.859Z,84.30
2022-07-30T07:30:37.944Z,84.10
2022-07-30T07:35:45.575Z,84.40
2022-07-30T07:40:53.445Z,84.90
2022-07-30T07:45:51.930Z,84.90
2022-07-30T07:50:50.331Z,85.10
2022-07-30T07:56:00.182Z,84.80
2022-07-30T08:00:58.483Z,85.80
2022-07-30T08:06:16.529Z,85.50
2022-07-30T08:11:38.363Z,84.70
2022-07-30T08:16:54.714Z,84.90
2022-07-30T08:22:12.671Z,83.70
2022-07-30T08:27:12.593Z,84.20
2022-07-30T08:32:10.660Z,82.30
2022-07-30T08:37:11.261Z,84.00
2022-07-30T08:42:14.837Z,84.70
2022-07-30T08:47:17.187Z,83.50
2022-07-30T08:52:54.083Z,82.10
2022-07-30T08:57:53.713Z,82.50
2022-07-30T09:02:51.721Z,81.50
2022-07-30T09:07:50.159Z,81.40
2022-07-30T09:12:53.990Z,81.30
2022-07-30T09:17:55.756Z,81.70
2022-07-30T09:22:57.582Z,81.00
2022-07-30T09:28:17.377Z,82.30
2022-07-30T09:33:38.149Z,82.10
2022-07-30T09:39:07.155Z,82.00
2022-07-30T09:44:30.753Z,80.10
2022-07-30T09:49:30.155Z,80.90
2022-07-30T09:54:51.368Z,80.70
2022-07-30T09:59:53.664Z,80.20
2022-07-30T10:04:53.180Z,77.50
2022-07-30T10:09:52.221Z,75.50
2022-07-30T10:14:56.130Z,75.20
2022-07-30T10:19:55.023Z,73.10
2022-07-30T10:25:27.675Z,71.10
2022-07-30T10:30:49.932Z,71.50
2022-07-30T10:35:49.525Z,72.00
2022-07-30T10:40:51.295Z,71.80
2022-07-30T10:45:59.397Z,72.50
2022-07-30T10:51:01.171Z,73.00
2022-07-30T10:56:18.068Z,70.10
2022-07-30T11:01:21.770Z,70.00
2022-07-30T11:06:29.199Z,69.10
2022-07-30T11:12:01.160Z,67.60
2022-07-30T11:17:05.913Z,67.00
2022-07-30T11:22:24.147Z,64.80
2022-07-30T11:27:42.300Z,65.50
2022-07-30T11:32:48.608Z,64.90
2022-07-30T11:38:02.119Z,62.40
2022-07-30T11:43:20.187Z,61.60
2022-07-30T11:48:21.829Z,60.90
2022-07-30T11:53:21.407Z,59.80
2022-07-30T11:58:28.512Z,59.50
2022-07-30T12:03:29.959Z,58.90
2022-07-30T12:08:35.175Z,57.90
2022-07-30T12:13:44.843Z,56.70
2022-07-30T12:18:47.200Z,57.60
2022-07-30T12:23:55.368Z,57.60
2022-07-30T12:28:54.963Z,56.50
2022-07-30T12:33:56.242Z,55.00
2022-07-30T12:38:57.970Z,55.30
2022-07-30T12:43:57.330Z,54.90
2022-07-30T12:49:02.764Z,53.70
2022-07-30T12:54:21.018Z,53.20
2022-07-30T12:59:23.630Z,53.10
2022-07-30T13:04:23.035Z,53.20
2022-07-30T13:09:22.458Z,53.80
2022-07-30T13:14:26.592Z,54.80
2022-07-30T13:19:28.042Z,53.80
2022-07-30T13:24:28.919Z,53.70
2022-07-30T13:29:26.896Z,52.60
2022-07-30T13:34:26.626Z,52.90
2022-07-30T13:39:24.579Z,53.60
2022-07-30T13:44:22.496Z,53.90
2022-07-30T13:49:20.531Z,54.00
2022-07-30T13:54:19.862Z,54.50
2022-07-30T13:59:17.859Z,54.50
2022-07-30T14:04:15.852Z,54.90
2022-07-30T14:09:13.813Z,54.60
2022-07-30T14:14:13.185Z,54.60
2022-07-30T14:19:23.370Z,53.60
2022-07-30T14:24:22.577Z,54.50
2022-07-30T14:29:21.897Z,54.00
2022-07-30T14:34:19.881Z,54.40
2022-07-30T14:39:17.850Z,54.50
2022-07-30T14:44:16.568Z,54.20
2022-07-30T14:49:16.733Z,54.40
2022-07-30T14:54:14.826Z,54.00
2022-07-30T14:59:12.922Z,53.70
2022-07-30T15:04:11.531Z,54.30
2022-07-30T15:09:11.405Z,54.30
2022-07-30T15:14:09.389Z,54.60
2022-07-30T15:19:07.417Z,54.60
2022-07-30T15:24:06.204Z,53.70
2022-07-30T15:29:06.820Z,54.50
2022-07-30T15:34:10.718Z,54.40
2022-07-30T15:39:08.761Z,53.90
2022-07-30T15:44:08.186Z,53.30
2022-07-30T15:49:07.122Z,53.30
2022-07-30T15:54:06.707Z,52.60
2022-07-30T15:59:07.190Z,53.50
2022-07-30T16:04:05.788Z,53.30
2022-07-30T16:09:04.936Z,53.60
2022-07-30T16:14:02.959Z,53.60
2022-07-30T16:19:02.319Z,53.40
2022-07-30T16:24:00.388Z,53.40
2022-07-30T16:28:58.456Z,52.80
2022-07-30T16:33:56.438Z,53.70
2022-07-30T16:38:55.810Z,53.90
2022-07-30T16:43:53.976Z,52.90
2022-07-30T16:48:52.231Z,53.70
2022-07-30T16:53:50.321Z,53.70
2022-07-30T16:58:49.729Z,54.00
2022-07-30T17:03:47.720Z,53.40
2022-07-30T17:08:45.775Z,53.00
2022-07-30T17:13:47.610Z,53.10
2022-07-30T17:18:46.913Z,53.10
2022-07-30T17:23:45.219Z,53.30
2022-07-30T17:28:43.364Z,53.30
2022-07-30T17:33:41.375Z,52.90
2022-07-30T17:38:40.725Z,53.30
2022-07-30T17:43:38.706Z,53.00
2022-07-30T17:48:36.736Z,53.30
2022-07-30T17:53:34.994Z,53.80
2022-07-30T17:58:35.405Z,53.80
2022-07-30T18:03:33.526Z,54.40
2022-07-30T18:08:33.125Z,54.10
2022-07-30T18:13:31.277Z,54.20
2022-07-30T18:18:30.718Z,54.90
2022-07-30T18:23:34.680Z,56.20
2022-07-30T18:28:33.226Z,55.40
2022-07-30T18:33:32.828Z,55.90
2022-07-30T18:38:30.901Z,56.20
2022-07-30T18:43:29.759Z,56.00
2022-07-30T18:48:27.881Z,56.10
2022-07-30T18:53:27.859Z,56.70
2022-07-30T18:58:26.010Z,56.90
2022-07-30T19:03:25.377Z,57.60
2022-07-30T19:08:23.475Z,58.40
2022-07-30T19:13:24.492Z,58.40
2022-07-30T19:18:22.934Z,58.20
2022-07-30T19:23:21.280Z,59.30
2022-07-30T19:28:19.355Z,59.10
2022-07-30T19:33:18.732Z,59.50
2022-07-30T19:38:23.950Z,61.50
2022-07-30T19:43:24.202Z,63.30
2022-07-30T19:48:28.616Z,64.60
2022-07-30T19:53:31.129Z,65.80
2022-07-30T19:58:30.203Z,67.40
2022-07-30T20:03:31.955Z,67.40
2022-07-30T20:08:30.162Z,67.90
2022-07-30T20:13:44.625Z,67.90
2022-07-30T20:18:47.410Z,68.30
2022-07-30T20:23:47.829Z,68.50
2022-07-30T20:28:52.376Z,69.10
2022-07-30T20:33:52.432Z,69.30
2022-07-30T20:38:50.612Z,70.00
2022-07-30T20:43:52.421Z,70.50
2022-07-30T20:48:54.384Z,70.90
2022-07-30T20:53:52.483Z,72.10
2022-07-30T20:58:50.922Z,73.10
2022-07-30T21:03:50.182Z,74.10
2022-07-30T21:08:49.592Z,74.50
2022-07-30T21:13:48.132Z,74.50
2022-07-30T21:18:49.266Z,75.60
2022-07-30T21:23:50.064Z,75.70
2022-07-30T21:28:48.154Z,76.60
2022-07-30T21:33:46.628Z,75.90
2022-07-30T21:38:45.328Z,76.20
2022-07-30T21:43:45.531Z,77.20
2022-07-30T21:48:44.216Z,78.10
2022-07-30T21:53:46.067Z,78.90
2022-07-30T21:58:46.127Z,79.00
2022-07-30T22:04:02.719Z,80.80
2022-07-30T22:09:18.948Z,80.70
2022-07-30T22:14:26.095Z,81.30
2022-07-30T22:19:25.950Z,81.30
2022-07-30T22:24:29.286Z,82.10
2022-07-30T22:29:34.090Z,81.80
2022-07-30T22:34:32.820Z,84.30
2022-07-30T22:39:31.607Z,85.60
2022-07-30T22:44:31.651Z,85.10
2022-07-30T22:49:45.448Z,86.90
2022-07-30T23:00:12.186Z,88.00
2022-07-30T23:05:11.719Z,88.70
2022-07-30T23:10:18.197Z,89.10
2022-07-30T23:12:30.761Z,86.60
2022-07-30T23:15:18.262Z,89.70
2022-07-30T23:20:17.922Z,90.80
2022-07-30T23:25:16.141Z,91.00
2022-07-30T23:30:14.689Z,91.40
2022-07-30T23:35:13.994Z,92.10
2022-07-30T23:40:12.855Z,92.40
2022-07-30T23:45:11.854Z,93.00
2022-07-30T23:50:10.738Z,94.00
2022-07-30T23:55:11.754Z,95.30
